Fairchild Air Force Base
KSKA : now visible

Airfield :











YOU CAN JOIN US ON...

 
LOGIN :

Register | Disclaimer

   EN    FR    IT 

 









Legend :    VFR   Marginal VFR   IFR   Intensive IFR   Very Intensive IFR
Visi :
Ceiling :
>= 8 km
>= 3000ft
5 to 8 km
1000 to 3000 ft
1500m to 5 km
500 to 1000 ft
800 to 1500m
200 to 500 ft
< 800m
< 200 ft
Symbols :   Thunderstorms  Fog  Heavy snow  Heavy precipitations  Wind > 20 kt






- Airport Elevation : 2461 ft


KSKA - Fairchild Air Force Base

CURRENT METAR :
  • 170358Z AUTO 24006KT 10SM CLR 19/01 A2981 RMK AO2 SLP086 T01920007 $

EXPIRED METARs :
  • 170258Z AUTO 25007KT 10SM CLR 22/03 A2981 RMK AO2 SLP086 T02240030 56007 $
  • 170158Z AUTO 25010KT 10SM CLR 26/01 A2981 RMK AO2 SLP086 T02600006 $

TAF TAF KSKA
Valid from the 17 at 03:00 until the 18 at 09:00 UTC


170300Z 1703/1809 23009KT 9999 SKC QNH2978INS WND VRB06KT AFT 1706
BECMG 1714/1715 21012KT 9999 SCT250 QNH2979INS
BECMG 1717/1718 23012G18KT 9999 SCT100 BKN200 QNH2975INS
BECMG 1720/1721 23020G30KT 9999 SCT100 BKN200 QNH2971INS
BECMG 1803/1804 30009KT 9999 SCT050 BKN150 QNH2975INS TX26/1723Z TN10/1712Z
KZSE FIR / North America



MET'MAP, your aeronautical weather chart ! - Copyright ORBIFLY December 2007 - Disclaimer

ORBIFLY MET'MAP TEAM :

Programming & Development : Alexandra Zaïnal
Concept & original design : Baudouin d'Aumeries
Assistance for programming : Marc-Olivier Méhu
Technical & hardware support : Manuel Goepfert

Contact : metmap@orbifly.com




SOURCES & CREDITS :

   NOAA       Earth
Advisory